Capitol Logistics 250


KMIA
Miami International Airport
Miami, Florida, US
PANC
Ted Stevens Anchorage International Airport
Anchorage, Alaska, US

Route Details

Aircraft Information
Primary: Boeing 747-400BCF
Backup: Boeing 777-200LRF
Route Data
Distance: 3479nm
Sched. Duration: 7h 54m
Avg. Duration: 8h 20m (+66m)
Times Flown: 7
Recm'd Route: WINCO2 WINCO CHRRI SMELZ Q116 JAWJA MGM IGB UJM OSW HLC MBW DBS PDT J20 SEA J523 TOU J501 YAZ Q801 YZP TR19 FRIED J804R EEDEN J804R MDO WITTI4
Planned Altitude: 36,000ft
Origin Wx: KMIA 251253Z 11007KT 10SM -RA FEW021 BKN040 OVC110 26/25 A2990 RMK AO2 RAB20 SLP126 P0000 T02560250 $
Dest. Wx: PANC 251253Z 32006KT 10SM OVC065 02/M02 A3016 RMK AO2 SLP214 T00171017 $
Notes:

Financial History
Total Freight: 501,654lbs
Average Load: 71,665lbs/flt
Fuel Used: 981,243lbs
Avg. Fuel Used: 140,178lbs/flt
Fuel Expense: $1,206,929
Avg. Fuel Expense: $172,418
Avg. Fuel Cost: $1.23/lbs
Total Gross Income: $992,395
Pilot Pay: $1,583
Total Expenses: $106,567
Total Revenue: $-335,609
Average Revenue: $141,770.76